Whitney, Mississippi
Current Conditions -  °F | °C
As of 3:35 AM on Friday 28 Nov 2014 (Local Time) from KRNV Reporting Station
Clear Clear  
Wind Chill: 29°   Ceiling: Unl
Heat Index: 34°   Visibility: 10mi
Dew Point: 31°   Wind: 6mph
Humidity: 88%   Direction: 140°SE
Pressure: 30.43"   Gusts: NA
Location:  33.8731°N, 90.5512°W
Report Text: KRNV 280935Z AUTO 14005KT 10SM CLR 01/00 A3043 RMK AO2 T00131005
Loading
Personal Weather Stations






























Interactive Weather Map New forecast layout! Learn more

10-Day Weather Forecast

Advertisements
Track Severe Weather on mobile